sensor_id;sensor_type;location;lat;lon;timestamp;pressure;altitude;pressure_sealevel;temperature;humidity
57050;BME280;42935;50.966;16.992;2023-07-31T00:01:39;101157.90;;;15.51;100.00
57050;BME280;42935;50.966;16.992;2023-07-31T00:05:01;101115.82;;;14.99;100.00
57050;BME280;42935;50.966;16.992;2023-07-31T00:08:20;101163.91;;;15.18;100.00
57050;BME280;42935;50.966;16.992;2023-07-31T00:11:42;101156.34;;;15.16;100.00
57050;BME280;42935;50.966;16.992;2023-07-31T00:15:00;101141.19;;;15.09;100.00
57050;BME280;42935;50.966;16.992;2023-07-31T00:18:24;101161.49;;;15.23;100.00
57050;BME280;42935;50.966;16.992;2023-07-31T00:21:44;101166.43;;;15.28;100.00
57050;BME280;42935;50.966;16.992;2023-07-31T00:25:03;101120.93;;;15.11;100.00
57050;BME280;42935;50.966;16.992;2023-07-31T00:28:28;101152.79;;;15.39;100.00
57050;BME280;42935;50.966;16.992;2023-07-31T00:31:51;101124.84;;;15.02;100.00
57050;BME280;42935;50.966;16.992;2023-07-31T00:35:42;101163.37;;;15.22;100.00
57050;BME280;42935;50.966;16.992;2023-07-31T00:39:05;101114.41;;;15.03;100.00
57050;BME280;42935;50.966;16.992;2023-07-31T00:42:26;101152.18;;;15.35;100.00
57050;BME280;42935;50.966;16.992;2023-07-31T00:45:50;101147.46;;;15.37;100.00
57050;BME280;42935;50.966;16.992;2023-07-31T00:49:11;101153.05;;;15.44;100.00
57050;BME280;42935;50.966;16.992;2023-07-31T00:53:03;101116.32;;;15.25;100.00
57050;BME280;42935;50.966;16.992;2023-07-31T00:56:24;101142.60;;;15.43;100.00
57050;BME280;42935;50.966;16.992;2023-07-31T00:59:47;101115.85;;;15.24;100.00
57050;BME280;42935;50.966;16.992;2023-07-31T01:03:42;101102.20;;;15.24;100.00
57050;BME280;42935;50.966;16.992;2023-07-31T01:14:13;101141.27;;;15.25;100.00
57050;BME280;42935;50.966;16.992;2023-07-31T01:17:43;101169.55;;;15.26;100.00
57050;BME280;42935;50.966;16.992;2023-07-31T01:21:18;101128.37;;;15.14;100.00
57050;BME280;42935;50.966;16.992;2023-07-31T01:25:16;101125.15;;;15.22;100.00
57050;BME280;42935;50.966;16.992;2023-07-31T01:32:02;101161.23;;;15.14;100.00
57050;BME280;42935;50.966;16.992;2023-07-31T01:35:19;101174.97;;;15.13;100.00
57050;BME280;42935;50.966;16.992;2023-07-31T01:38:40;101169.43;;;14.92;100.00
57050;BME280;42935;50.966;16.992;2023-07-31T01:42:00;101163.27;;;14.82;100.00
57050;BME280;42935;50.966;16.992;2023-07-31T01:45:16;101162.73;;;14.93;100.00
57050;BME280;42935;50.966;16.992;2023-07-31T01:49:06;101162.40;;;14.96;100.00
57050;BME280;42935;50.966;16.992;2023-07-31T01:52:24;101154.73;;;15.01;100.00
57050;BME280;42935;50.966;16.992;2023-07-31T01:55:44;101161.16;;;15.09;100.00
57050;BME280;42935;50.966;16.992;2023-07-31T01:59:06;101162.77;;;15.14;100.00
57050;BME280;42935;50.966;16.992;2023-07-31T02:02:56;101154.70;;;15.22;100.00
57050;BME280;42935;50.966;16.992;2023-07-31T02:06:21;101122.27;;;15.16;100.00
57050;BME280;42935;50.966;16.992;2023-07-31T02:09:40;101118.31;;;15.22;100.00
57050;BME280;42935;50.966;16.992;2023-07-31T02:13:00;101111.94;;;15.12;100.00
57050;BME280;42935;50.966;16.992;2023-07-31T02:16:21;101122.21;;;15.18;100.00
57050;BME280;42935;50.966;16.992;2023-07-31T02:19:40;101163.53;;;15.32;100.00
57050;BME280;42935;50.966;16.992;2023-07-31T02:23:04;101157.02;;;15.29;100.00
57050;BME280;42935;50.966;16.992;2023-07-31T02:26:25;101153.35;;;15.25;100.00
57050;BME280;42935;50.966;16.992;2023-07-31T02:29:49;101156.66;;;15.26;100.00
57050;BME280;42935;50.966;16.992;2023-07-31T02:33:12;101106.56;;;14.93;100.00
57050;BME280;42935;50.966;16.992;2023-07-31T02:37:01;101112.47;;;14.97;100.00
57050;BME280;42935;50.966;16.992;2023-07-31T02:40:23;101123.88;;;15.11;100.00
57050;BME280;42935;50.966;16.992;2023-07-31T02:43:45;101150.20;;;15.26;100.00
57050;BME280;42935;50.966;16.992;2023-07-31T02:47:04;101159.86;;;15.40;100.00
57050;BME280;42935;50.966;16.992;2023-07-31T02:50:24;101123.34;;;15.21;100.00
57050;BME280;42935;50.966;16.992;2023-07-31T02:53:47;101152.53;;;15.53;100.00
57050;BME280;42935;50.966;16.992;2023-07-31T02:57:06;101115.91;;;15.34;100.00
57050;BME280;42935;50.966;16.992;2023-07-31T03:00:24;101161.72;;;15.51;100.00
57050;BME280;42935;50.966;16.992;2023-07-31T03:03:43;101153.86;;;15.48;100.00
57050;BME280;42935;50.966;16.992;2023-07-31T03:07:09;101121.87;;;15.30;100.00
57050;BME280;42935;50.966;16.992;2023-07-31T03:10:31;101160.55;;;15.53;100.00
57050;BME280;42935;50.966;16.992;2023-07-31T03:13:51;101157.28;;;15.37;100.00
57050;BME280;42935;50.966;16.992;2023-07-31T03:17:19;101168.55;;;15.31;100.00
57050;BME280;42935;50.966;16.992;2023-07-31T03:20:44;101163.34;;;15.14;100.00
57050;BME280;42935;50.966;16.992;2023-07-31T03:24:07;101119.46;;;14.48;100.00
57050;BME280;42935;50.966;16.992;2023-07-31T03:27:27;101115.52;;;14.26;100.00
57050;BME280;42935;50.966;16.992;2023-07-31T03:30:49;101169.40;;;14.63;100.00
57050;BME280;42935;50.966;16.992;2023-07-31T03:34:42;101126.68;;;14.42;100.00
57050;BME280;42935;50.966;16.992;2023-07-31T03:38:04;101122.20;;;14.29;100.00
57050;BME280;42935;50.966;16.992;2023-07-31T03:41:28;101126.38;;;14.25;100.00
57050;BME280;42935;50.966;16.992;2023-07-31T03:44:46;101133.88;;;14.18;100.00
57050;BME280;42935;50.966;16.992;2023-07-31T03:48:07;101172.23;;;14.44;100.00
57050;BME280;42935;50.966;16.992;2023-07-31T03:51:57;101131.42;;;14.10;100.00
57050;BME280;42935;50.966;16.992;2023-07-31T03:55:22;101167.36;;;14.39;100.00
57050;BME280;42935;50.966;16.992;2023-07-31T03:58:42;101172.68;;;14.37;100.00
57050;BME280;42935;50.966;16.992;2023-07-31T04:02:29;101174.73;;;14.47;100.00
57050;BME280;42935;50.966;16.992;2023-07-31T04:05:47;101170.30;;;14.59;100.00
57050;BME280;42935;50.966;16.992;2023-07-31T04:09:06;101126.91;;;14.36;100.00
57050;BME280;42935;50.966;16.992;2023-07-31T04:12:26;101123.12;;;14.33;100.00
57050;BME280;42935;50.966;16.992;2023-07-31T04:15:50;101163.70;;;14.71;100.00
57050;BME280;42935;50.966;16.992;2023-07-31T04:19:36;101163.17;;;14.84;100.00
57050;BME280;42935;50.966;16.992;2023-07-31T04:22:56;101119.34;;;14.48;100.00
57050;BME280;42935;50.966;16.992;2023-07-31T04:26:15;101166.82;;;14.78;100.00
57050;BME280;42935;50.966;16.992;2023-07-31T04:29:34;101152.54;;;14.77;100.00
57050;BME280;42935;50.966;16.992;2023-07-31T04:32:53;101164.35;;;15.03;100.00
57050;BME280;42935;50.966;16.992;2023-07-31T04:36:13;101166.73;;;14.78;100.00
57050;BME280;42935;50.966;16.992;2023-07-31T04:39:37;101167.39;;;14.80;100.00
57050;BME280;42935;50.966;16.992;2023-07-31T04:42:58;101165.70;;;14.90;100.00
57050;BME280;42935;50.966;16.992;2023-07-31T04:46:18;101106.71;;;14.74;100.00
57050;BME280;42935;50.966;16.992;2023-07-31T04:49:38;101161.20;;;15.27;100.00
57050;BME280;42935;50.966;16.992;2023-07-31T04:52:58;101162.45;;;15.30;100.00
57050;BME280;42935;50.966;16.992;2023-07-31T04:56:17;101139.90;;;15.38;100.00
57050;BME280;42935;50.966;16.992;2023-07-31T04:59:37;101157.45;;;15.69;100.00
57050;BME280;42935;50.966;16.992;2023-07-31T05:02:57;101157.06;;;15.87;100.00
57050;BME280;42935;50.966;16.992;2023-07-31T05:06:17;101157.94;;;16.06;100.00
57050;BME280;42935;50.966;16.992;2023-07-31T05:09:41;101156.33;;;16.35;100.00
57050;BME280;42935;50.966;16.992;2023-07-31T05:13:06;101109.48;;;15.99;100.00
57050;BME280;42935;50.966;16.992;2023-07-31T05:16:26;101113.14;;;16.17;100.00
57050;BME280;42935;50.966;16.992;2023-07-31T05:19:46;101162.91;;;16.51;100.00
57050;BME280;42935;50.966;16.992;2023-07-31T05:23:05;101165.40;;;16.63;100.00
57050;BME280;42935;50.966;16.992;2023-07-31T05:26:25;101115.97;;;16.33;100.00
57050;BME280;42935;50.966;16.992;2023-07-31T05:29:45;101161.41;;;16.76;100.00
57050;BME280;42935;50.966;16.992;2023-07-31T05:33:07;101155.88;;;16.83;100.00
57050;BME280;42935;50.966;16.992;2023-07-31T05:36:27;101171.41;;;16.92;100.00
57050;BME280;42935;50.966;16.992;2023-07-31T05:39:46;101164.56;;;16.84;100.00
57050;BME280;42935;50.966;16.992;2023-07-31T05:43:35;101167.00;;;16.91;100.00
57050;BME280;42935;50.966;16.992;2023-07-31T05:46:54;101159.05;;;17.03;100.00
57050;BME280;42935;50.966;16.992;2023-07-31T05:50:11;101165.27;;;17.29;100.00
57050;BME280;42935;50.966;16.992;2023-07-31T05:53:30;101163.57;;;17.28;100.00
57050;BME280;42935;50.966;16.992;2023-07-31T05:56:47;101162.39;;;17.33;100.00
57050;BME280;42935;50.966;16.992;2023-07-31T06:00:07;101155.45;;;17.32;100.00
57050;BME280;42935;50.966;16.992;2023-07-31T06:03:27;101114.93;;;17.14;100.00
57050;BME280;42935;50.966;16.992;2023-07-31T06:06:47;101158.37;;;17.56;100.00
57050;BME280;42935;50.966;16.992;2023-07-31T06:10:07;101162.32;;;17.49;100.00
57050;BME280;42935;50.966;16.992;2023-07-31T06:13:27;101159.98;;;17.65;100.00
57050;BME280;42935;50.966;16.992;2023-07-31T06:16:47;101158.37;;;17.64;100.00
57050;BME280;42935;50.966;16.992;2023-07-31T06:20:08;101154.25;;;17.77;100.00
57050;BME280;42935;50.966;16.992;2023-07-31T06:23:27;101140.23;;;17.66;100.00
57050;BME280;42935;50.966;16.992;2023-07-31T06:26:47;101149.98;;;17.87;100.00
57050;BME280;42935;50.966;16.992;2023-07-31T06:30:07;101114.65;;;17.80;100.00
57050;BME280;42935;50.966;16.992;2023-07-31T06:33:33;101151.59;;;17.88;100.00
57050;BME280;42935;50.966;16.992;2023-07-31T06:36:56;101120.41;;;17.65;100.00
57050;BME280;42935;50.966;16.992;2023-07-31T06:40:15;101146.50;;;17.96;100.00
57050;BME280;42935;50.966;16.992;2023-07-31T06:43:37;101117.42;;;17.85;100.00
57050;BME280;42935;50.966;16.992;2023-07-31T06:46:58;101162.34;;;18.18;100.00
57050;BME280;42935;50.966;16.992;2023-07-31T06:50:18;101160.46;;;18.45;100.00
57050;BME280;42935;50.966;16.992;2023-07-31T06:53:38;101159.55;;;18.53;100.00
57050;BME280;42935;50.966;16.992;2023-07-31T06:56:58;101112.41;;;18.27;100.00
57050;BME280;42935;50.966;16.992;2023-07-31T07:00:16;101157.55;;;18.58;100.00
57050;BME280;42935;50.966;16.992;2023-07-31T07:03:36;101146.52;;;18.38;100.00
57050;BME280;42935;50.966;16.992;2023-07-31T07:06:54;101101.83;;;18.14;100.00
57050;BME280;42935;50.966;16.992;2023-07-31T07:10:45;101146.52;;;18.39;100.00
57050;BME280;42935;50.966;16.992;2023-07-31T07:14:04;101142.88;;;18.52;100.00
57050;BME280;42935;50.966;16.992;2023-07-31T07:17:22;101138.78;;;18.66;100.00
57050;BME280;42935;50.966;16.992;2023-07-31T07:20:38;101138.10;;;18.79;100.00
57050;BME280;42935;50.966;16.992;2023-07-31T07:23:56;101105.75;;;18.59;100.00
57050;BME280;42935;50.966;16.992;2023-07-31T07:27:47;101138.64;;;19.02;100.00
57050;BME280;42935;50.966;16.992;2023-07-31T07:31:37;101088.84;;;18.78;100.00
57050;BME280;42935;50.966;16.992;2023-07-31T07:35:01;101101.09;;;18.98;100.00
57050;BME280;42935;50.966;16.992;2023-07-31T07:38:19;101119.83;;;18.91;100.00
57050;BME280;42935;50.966;16.992;2023-07-31T07:41:39;101062.90;;;18.61;100.00
57050;BME280;42935;50.966;16.992;2023-07-31T07:44:59;101122.23;;;19.04;100.00
57050;BME280;42935;50.966;16.992;2023-07-31T07:48:19;101078.84;;;19.07;100.00
57050;BME280;42935;50.966;16.992;2023-07-31T07:51:39;101107.18;;;19.52;99.68
57050;BME280;42935;50.966;16.992;2023-07-31T07:54:59;101076.88;;;19.37;93.62
57050;BME280;42935;50.966;16.992;2023-07-31T07:58:16;101117.80;;;19.76;92.78
57050;BME280;42935;50.966;16.992;2023-07-31T08:01:34;101107.34;;;19.99;92.20
57050;BME280;42935;50.966;16.992;2023-07-31T08:04:54;101105.60;;;19.96;90.59
57050;BME280;42935;50.966;16.992;2023-07-31T08:08:17;101103.24;;;19.93;87.73
57050;BME280;42935;50.966;16.992;2023-07-31T08:11:40;101108.50;;;20.09;87.75
57050;BME280;42935;50.966;16.992;2023-07-31T08:15:00;101093.07;;;20.28;88.88
57050;BME280;42935;50.966;16.992;2023-07-31T08:18:16;101099.89;;;20.93;86.35
57050;BME280;42935;50.966;16.992;2023-07-31T08:21:35;101106.41;;;21.30;76.45
57050;BME280;42935;50.966;16.992;2023-07-31T08:24:55;101104.18;;;21.11;69.69
57050;BME280;42935;50.966;16.992;2023-07-31T08:28:14;101107.34;;;21.26;71.90
57050;BME280;42935;50.966;16.992;2023-07-31T08:31:34;101109.42;;;20.74;66.64
57050;BME280;42935;50.966;16.992;2023-07-31T08:34:56;101075.26;;;20.28;66.44
57050;BME280;42935;50.966;16.992;2023-07-31T08:38:15;101126.83;;;20.42;67.95
57050;BME280;42935;50.966;16.992;2023-07-31T08:41:38;101089.20;;;20.21;74.69
57050;BME280;42935;50.966;16.992;2023-07-31T08:44:59;101128.12;;;20.76;79.62
57050;BME280;42935;50.966;16.992;2023-07-31T08:48:20;101128.16;;;20.47;83.61
57050;BME280;42935;50.966;16.992;2023-07-31T08:51:46;101112.02;;;20.21;88.27
57050;BME280;42935;50.966;16.992;2023-07-31T08:55:08;101123.46;;;20.33;92.32
57050;BME280;42935;50.966;16.992;2023-07-31T08:58:31;101084.15;;;19.63;87.79
57050;BME280;42935;50.966;16.992;2023-07-31T09:01:55;101077.20;;;19.79;96.02
57050;BME280;42935;50.966;16.992;2023-07-31T09:05:14;101124.01;;;19.81;93.45
57050;BME280;42935;50.966;16.992;2023-07-31T09:08:35;101112.95;;;19.97;99.54
57050;BME280;42935;50.966;16.992;2023-07-31T09:12:01;101120.91;;;19.91;79.02
57050;BME280;42935;50.966;16.992;2023-07-31T09:15:22;101104.40;;;20.08;75.25
57050;BME280;42935;50.966;16.992;2023-07-31T09:22:10;101123.21;;;20.01;77.59
57050;BME280;42935;50.966;16.992;2023-07-31T09:25:28;101079.52;;;19.45;81.44
57050;BME280;42935;50.966;16.992;2023-07-31T09:28:48;101142.59;;;19.21;79.97
57050;BME280;42935;50.966;16.992;2023-07-31T09:35:40;101102.30;;;18.79;83.12
57050;BME280;42935;50.966;16.992;2023-07-31T09:39:10;101148.23;;;19.30;86.04
57050;BME280;42935;50.966;16.992;2023-07-31T09:42:30;101151.76;;;19.17;83.37
57050;BME280;42935;50.966;16.992;2023-07-31T09:45:55;101150.59;;;19.20;83.12
57050;BME280;42935;50.966;16.992;2023-07-31T09:49:18;101103.31;;;19.15;85.09
57050;BME280;42935;50.966;16.992;2023-07-31T09:52:39;101139.95;;;19.42;87.38
57050;BME280;42935;50.966;16.992;2023-07-31T09:56:01;101097.55;;;19.00;90.14
57050;BME280;42935;50.966;16.992;2023-07-31T09:59:20;101142.91;;;19.29;88.33
57050;BME280;42935;50.966;16.992;2023-07-31T10:02:45;101140.12;;;19.26;85.09
57050;BME280;42935;50.966;16.992;2023-07-31T10:06:09;101125.20;;;19.34;89.38
57050;BME280;42935;50.966;16.992;2023-07-31T10:09:34;101131.87;;;19.37;87.18
57050;BME280;42935;50.966;16.992;2023-07-31T10:12:53;101135.80;;;19.11;84.69
57050;BME280;42935;50.966;16.992;2023-07-31T10:16:12;101094.71;;;19.11;88.45
57050;BME280;42935;50.966;16.992;2023-07-31T10:19:36;101133.77;;;19.32;87.21
57050;BME280;42935;50.966;16.992;2023-07-31T10:22:55;101123.64;;;19.62;83.59
57050;BME280;42935;50.966;16.992;2023-07-31T10:26:17;101124.33;;;19.85;82.78
57050;BME280;42935;50.966;16.992;2023-07-31T10:29:40;101129.55;;;20.05;84.84
57050;BME280;42935;50.966;16.992;2023-07-31T10:33:01;101090.55;;;20.00;82.07
57050;BME280;42935;50.966;16.992;2023-07-31T10:36:21;101074.86;;;20.03;82.07
57050;BME280;42935;50.966;16.992;2023-07-31T10:39:39;101118.66;;;19.95;82.13
57050;BME280;42935;50.966;16.992;2023-07-31T10:42:58;101124.39;;;20.09;79.77
57050;BME280;42935;50.966;16.992;2023-07-31T10:46:18;101112.39;;;20.17;82.70
57050;BME280;42935;50.966;16.992;2023-07-31T10:49:34;101114.22;;;20.10;80.24
57050;BME280;42935;50.966;16.992;2023-07-31T10:52:56;101059.05;;;19.95;79.16
57050;BME280;42935;50.966;16.992;2023-07-31T10:56:20;101066.05;;;20.09;80.92
57050;BME280;42935;50.966;16.992;2023-07-31T10:59:42;101092.52;;;20.55;78.83
57050;BME280;42935;50.966;16.992;2023-07-31T11:03:03;101096.58;;;20.31;78.72
57050;BME280;42935;50.966;16.992;2023-07-31T11:06:29;101088.81;;;20.76;77.98
57050;BME280;42935;50.966;16.992;2023-07-31T11:09:51;101079.46;;;21.09;75.25
57050;BME280;42935;50.966;16.992;2023-07-31T11:13:12;101063.63;;;21.03;73.54
57050;BME280;42935;50.966;16.992;2023-07-31T11:16:30;101066.91;;;21.42;72.13
57050;BME280;42935;50.966;16.992;2023-07-31T11:19:50;101066.84;;;21.63;69.99
57050;BME280;42935;50.966;16.992;2023-07-31T11:23:11;101021.21;;;21.84;69.78
57050;BME280;42935;50.966;16.992;2023-07-31T11:26:29;101052.80;;;21.97;70.43
57050;BME280;42935;50.966;16.992;2023-07-31T11:29:51;101020.96;;;21.96;70.97
57050;BME280;42935;50.966;16.992;2023-07-31T11:33:13;101050.42;;;22.75;70.47
57050;BME280;42935;50.966;16.992;2023-07-31T11:36:31;101044.49;;;22.96;69.67
57050;BME280;42935;50.966;16.992;2023-07-31T11:40:00;101034.14;;;22.52;66.40
57050;BME280;42935;50.966;16.992;2023-07-31T11:43:21;101032.88;;;22.04;68.80
57050;BME280;42935;50.966;16.992;2023-07-31T11:47:09;101033.80;;;22.23;69.96
57050;BME280;42935;50.966;16.992;2023-07-31T11:50:28;101022.91;;;22.35;71.31
57050;BME280;42935;50.966;16.992;2023-07-31T11:54:17;100969.76;;;22.44;68.72
57050;BME280;42935;50.966;16.992;2023-07-31T11:57:37;100972.95;;;22.50;69.16
57050;BME280;42935;50.966;16.992;2023-07-31T12:00:58;101006.59;;;22.99;70.09
57050;BME280;42935;50.966;16.992;2023-07-31T12:04:19;100953.56;;;23.30;67.79
57050;BME280;42935;50.966;16.992;2023-07-31T12:07:52;101000.10;;;22.14;65.22
57050;BME280;42935;50.966;16.992;2023-07-31T12:11:09;101002.40;;;22.16;67.00
57050;BME280;42935;50.966;16.992;2023-07-31T12:14:29;100995.52;;;22.89;66.88
57050;BME280;42935;50.966;16.992;2023-07-31T12:17:49;100948.34;;;22.11;67.67
57050;BME280;42935;50.966;16.992;2023-07-31T12:21:08;100982.99;;;22.25;70.22
57050;BME280;42935;50.966;16.992;2023-07-31T12:24:34;100978.12;;;22.57;68.55
57050;BME280;42935;50.966;16.992;2023-07-31T12:28:25;100974.41;;;22.51;69.39
57050;BME280;42935;50.966;16.992;2023-07-31T12:31:43;100920.20;;;21.71;66.04
57050;BME280;42935;50.966;16.992;2023-07-31T12:35:07;100961.48;;;22.73;68.52
57050;BME280;42935;50.966;16.992;2023-07-31T12:38:25;100957.05;;;22.81;65.88
57050;BME280;42935;50.966;16.992;2023-07-31T12:41:44;100911.67;;;22.83;65.72
57050;BME280;42935;50.966;16.992;2023-07-31T12:45:34;100903.20;;;23.05;66.08
57050;BME280;42935;50.966;16.992;2023-07-31T12:48:54;100949.99;;;23.00;63.24
57050;BME280;42935;50.966;16.992;2023-07-31T12:52:14;100909.36;;;23.08;65.46
57050;BME280;42935;50.966;16.992;2023-07-31T12:55:34;100901.41;;;22.72;67.28
57050;BME280;42935;50.966;16.992;2023-07-31T12:58:55;100917.29;;;23.70;64.47
57050;BME280;42935;50.966;16.992;2023-07-31T13:02:15;100901.31;;;23.42;64.83
57050;BME280;42935;50.966;16.992;2023-07-31T13:05:35;100910.96;;;23.88;62.33
57050;BME280;42935;50.966;16.992;2023-07-31T13:08:55;100913.14;;;24.53;63.54
57050;BME280;42935;50.966;16.992;2023-07-31T13:12:20;100910.00;;;24.56;61.91
57050;BME280;42935;50.966;16.992;2023-07-31T13:15:44;100911.88;;;24.41;63.27
57050;BME280;42935;50.966;16.992;2023-07-31T13:19:04;100904.69;;;24.24;61.64
57050;BME280;42935;50.966;16.992;2023-07-31T13:22:24;100893.39;;;24.57;64.92
57050;BME280;42935;50.966;16.992;2023-07-31T13:25:42;100892.79;;;23.71;62.04
57050;BME280;42935;50.966;16.992;2023-07-31T13:29:00;100888.35;;;24.02;62.71
57050;BME280;42935;50.966;16.992;2023-07-31T13:32:22;100868.27;;;23.83;62.86
57050;BME280;42935;50.966;16.992;2023-07-31T13:35:42;100839.46;;;23.20;63.47
57050;BME280;42935;50.966;16.992;2023-07-31T13:39:03;100890.37;;;23.27;65.71
57050;BME280;42935;50.966;16.992;2023-07-31T13:42:22;100845.80;;;22.62;66.78
57050;BME280;42935;50.966;16.992;2023-07-31T13:45:42;100878.85;;;23.18;68.63
57050;BME280;42935;50.966;16.992;2023-07-31T13:49:02;100880.42;;;23.11;67.21
57050;BME280;42935;50.966;16.992;2023-07-31T13:52:25;100883.68;;;23.23;64.25
57050;BME280;42935;50.966;16.992;2023-07-31T13:55:44;100882.84;;;23.61;63.81
57050;BME280;42935;50.966;16.992;2023-07-31T13:59:08;100886.30;;;23.85;62.16
57050;BME280;42935;50.966;16.992;2023-07-31T14:02:35;100884.30;;;24.03;64.03
57050;BME280;42935;50.966;16.992;2023-07-31T14:05:54;100869.52;;;24.18;62.09
57050;BME280;42935;50.966;16.992;2023-07-31T14:09:15;100879.62;;;23.97;61.00
57050;BME280;42935;50.966;16.992;2023-07-31T14:12:35;100877.27;;;24.01;62.97
57050;BME280;42935;50.966;16.992;2023-07-31T14:15:55;100878.29;;;24.18;63.71
57050;BME280;42935;50.966;16.992;2023-07-31T14:19:15;100848.95;;;23.85;61.16
57050;BME280;42935;50.966;16.992;2023-07-31T14:22:35;100883.88;;;24.81;63.07
57050;BME280;42935;50.966;16.992;2023-07-31T14:25:59;100841.03;;;24.08;61.45
57050;BME280;42935;50.966;16.992;2023-07-31T14:29:14;100886.26;;;24.16;63.41
57050;BME280;42935;50.966;16.992;2023-07-31T14:32:34;100877.30;;;24.69;62.09
57050;BME280;42935;50.966;16.992;2023-07-31T14:36:26;100867.46;;;23.97;59.88
57050;BME280;42935;50.966;16.992;2023-07-31T14:39:45;100875.80;;;24.06;61.17
57050;BME280;42935;50.966;16.992;2023-07-31T14:43:05;100855.94;;;23.58;62.33
57050;BME280;42935;50.966;16.992;2023-07-31T14:46:25;100834.44;;;22.94;61.62
57050;BME280;42935;50.966;16.992;2023-07-31T14:49:45;100878.58;;;23.42;64.55
57050;BME280;42935;50.966;16.992;2023-07-31T14:53:03;100844.34;;;22.97;61.79
57050;BME280;42935;50.966;16.992;2023-07-31T14:56:22;100824.13;;;22.84;62.78
57050;BME280;42935;50.966;16.992;2023-07-31T14:59:48;100868.48;;;23.73;62.26
57050;BME280;42935;50.966;16.992;2023-07-31T15:03:36;100851.30;;;23.88;60.99
57050;BME280;42935;50.966;16.992;2023-07-31T15:07:00;100813.88;;;23.80;61.87
57050;BME280;42935;50.966;16.992;2023-07-31T15:10:22;100812.44;;;23.39;60.21
57050;BME280;42935;50.966;16.992;2023-07-31T15:13:42;100846.55;;;23.33;62.73
57050;BME280;42935;50.966;16.992;2023-07-31T15:17:06;100844.93;;;23.10;62.19
57050;BME280;42935;50.966;16.992;2023-07-31T15:20:25;100852.12;;;23.20;63.05
57050;BME280;42935;50.966;16.992;2023-07-31T15:23:46;100847.17;;;23.80;61.36
57050;BME280;42935;50.966;16.992;2023-07-31T15:27:03;100842.05;;;24.25;61.76
57050;BME280;42935;50.966;16.992;2023-07-31T15:30:24;100841.77;;;24.26;60.18
57050;BME280;42935;50.966;16.992;2023-07-31T15:33:45;100838.16;;;24.11;61.66
57050;BME280;42935;50.966;16.992;2023-07-31T15:37:06;100832.63;;;23.33;62.24
57050;BME280;42935;50.966;16.992;2023-07-31T15:40:25;100786.20;;;22.77;62.85
57050;BME280;42935;50.966;16.992;2023-07-31T15:43:46;100825.44;;;23.19;62.62
57050;BME280;42935;50.966;16.992;2023-07-31T15:47:06;100768.45;;;23.01;63.20
57050;BME280;42935;50.966;16.992;2023-07-31T15:50:25;100759.35;;;23.71;64.87
57050;BME280;42935;50.966;16.992;2023-07-31T15:53:47;100797.76;;;24.13;62.33
57050;BME280;42935;50.966;16.992;2023-07-31T15:57:08;100801.04;;;25.28;59.04
57050;BME280;42935;50.966;16.992;2023-07-31T16:00:27;100799.11;;;25.37;56.63
57050;BME280;42935;50.966;16.992;2023-07-31T16:03:52;100753.26;;;24.72;55.74
57050;BME280;42935;50.966;16.992;2023-07-31T16:07:11;100791.11;;;24.86;58.96
57050;BME280;42935;50.966;16.992;2023-07-31T16:10:32;100758.52;;;24.53;57.08
57050;BME280;42935;50.966;16.992;2023-07-31T16:13:51;100804.00;;;24.11;60.33
57050;BME280;42935;50.966;16.992;2023-07-31T16:17:10;100758.72;;;23.22;61.22
57050;BME280;42935;50.966;16.992;2023-07-31T16:20:29;100798.30;;;23.16;63.49
57050;BME280;42935;50.966;16.992;2023-07-31T16:23:50;100791.28;;;22.76;64.51
57050;BME280;42935;50.966;16.992;2023-07-31T16:27:16;100780.66;;;22.41;63.94
57050;BME280;42935;50.966;16.992;2023-07-31T16:30:42;100787.84;;;22.38;64.95
57050;BME280;42935;50.966;16.992;2023-07-31T16:34:31;100787.41;;;22.51;66.19
57050;BME280;42935;50.966;16.992;2023-07-31T16:37:51;100784.29;;;22.50;67.51
57050;BME280;42935;50.966;16.992;2023-07-31T16:41:15;100750.66;;;22.48;67.85
57050;BME280;42935;50.966;16.992;2023-07-31T16:44:34;100787.98;;;23.37;66.51
57050;BME280;42935;50.966;16.992;2023-07-31T16:47:56;100755.66;;;23.05;67.71
57050;BME280;42935;50.966;16.992;2023-07-31T16:51:14;100778.69;;;22.89;67.67
57050;BME280;42935;50.966;16.992;2023-07-31T16:54:34;100781.38;;;22.53;67.83
57050;BME280;42935;50.966;16.992;2023-07-31T16:58:24;100746.01;;;22.25;69.58
57050;BME280;42935;50.966;16.992;2023-07-31T17:01:44;100787.50;;;22.35;69.79
57050;BME280;42935;50.966;16.992;2023-07-31T17:05:00;100779.82;;;22.21;71.10
57050;BME280;42935;50.966;16.992;2023-07-31T17:08:16;100771.74;;;22.06;71.44
57050;BME280;42935;50.966;16.992;2023-07-31T17:11:39;100783.36;;;21.99;71.06
57050;BME280;42935;50.966;16.992;2023-07-31T17:14:57;100782.87;;;21.82;70.79
57050;BME280;42935;50.966;16.992;2023-07-31T17:18:17;100781.55;;;21.83;70.49
57050;BME280;42935;50.966;16.992;2023-07-31T17:22:06;100778.88;;;21.71;71.48
57050;BME280;42935;50.966;16.992;2023-07-31T17:25:25;100780.16;;;21.62;71.50
57050;BME280;42935;50.966;16.992;2023-07-31T17:28:47;100775.24;;;21.50;72.20
57050;BME280;42935;50.966;16.992;2023-07-31T17:32:36;100783.95;;;21.43;73.67
57050;BME280;42935;50.966;16.992;2023-07-31T17:35:54;100773.50;;;21.39;73.11
57050;BME280;42935;50.966;16.992;2023-07-31T17:39:14;100770.09;;;21.41;74.50